sensor_id;sensor_type;location;lat;lon;timestamp;P1;durP1;ratioP1;P2;durP2;ratioP2
37655;SDS011;23498;50.958;3.124;2023-09-18T00:00:46;8.65;;;5.05;;
37655;SDS011;23498;50.958;3.124;2023-09-18T00:03:15;7.63;;;4.75;;
37655;SDS011;23498;50.958;3.124;2023-09-18T00:05:42;7.50;;;4.45;;
37655;SDS011;23498;50.958;3.124;2023-09-18T00:08:08;7.75;;;4.85;;
37655;SDS011;23498;50.958;3.124;2023-09-18T00:10:34;6.97;;;4.55;;
37655;SDS011;23498;50.958;3.124;2023-09-18T00:13:01;5.95;;;4.30;;
37655;SDS011;23498;50.958;3.124;2023-09-18T00:15:27;10.30;;;4.60;;
37655;SDS011;23498;50.958;3.124;2023-09-18T00:17:53;7.47;;;4.40;;
37655;SDS011;23498;50.958;3.124;2023-09-18T00:20:19;6.13;;;3.80;;
37655;SDS011;23498;50.958;3.124;2023-09-18T00:22:45;6.00;;;3.70;;
37655;SDS011;23498;50.958;3.124;2023-09-18T00:25:11;7.45;;;4.40;;
37655;SDS011;23498;50.958;3.124;2023-09-18T00:27:40;6.38;;;3.83;;
37655;SDS011;23498;50.958;3.124;2023-09-18T00:30:06;6.60;;;4.25;;
37655;SDS011;23498;50.958;3.124;2023-09-18T00:32:32;7.55;;;4.10;;
37655;SDS011;23498;50.958;3.124;2023-09-18T00:34:58;7.63;;;4.15;;
37655;SDS011;23498;50.958;3.124;2023-09-18T00:37:24;5.57;;;4.00;;
37655;SDS011;23498;50.958;3.124;2023-09-18T00:39:50;7.80;;;4.53;;
37655;SDS011;23498;50.958;3.124;2023-09-18T00:42:16;6.95;;;4.28;;
37655;SDS011;23498;50.958;3.124;2023-09-18T00:44:43;6.65;;;4.00;;
37655;SDS011;23498;50.958;3.124;2023-09-18T00:47:09;9.13;;;4.55;;
37655;SDS011;23498;50.958;3.124;2023-09-18T00:49:36;5.80;;;4.15;;
37655;SDS011;23498;50.958;3.124;2023-09-18T00:52:03;7.03;;;4.20;;
37655;SDS011;23498;50.958;3.124;2023-09-18T00:54:29;7.22;;;4.30;;
37655;SDS011;23498;50.958;3.124;2023-09-18T00:56:56;6.45;;;4.60;;
37655;SDS011;23498;50.958;3.124;2023-09-18T00:59:22;7.80;;;4.65;;
37655;SDS011;23498;50.958;3.124;2023-09-18T01:01:48;7.32;;;4.38;;
37655;SDS011;23498;50.958;3.124;2023-09-18T01:04:19;6.28;;;4.80;;
37655;SDS011;23498;50.958;3.124;2023-09-18T01:06:45;10.07;;;5.25;;
37655;SDS011;23498;50.958;3.124;2023-09-18T01:09:12;7.40;;;4.68;;
37655;SDS011;23498;50.958;3.124;2023-09-18T01:11:46;8.10;;;4.68;;
37655;SDS011;23498;50.958;3.124;2023-09-18T01:14:19;5.68;;;4.25;;
37655;SDS011;23498;50.958;3.124;2023-09-18T01:17:07;8.00;;;4.88;;
37655;SDS011;23498;50.958;3.124;2023-09-18T01:19:36;8.05;;;4.45;;
37655;SDS011;23498;50.958;3.124;2023-09-18T01:22:03;9.32;;;4.97;;
37655;SDS011;23498;50.958;3.124;2023-09-18T01:24:30;7.05;;;4.85;;
37655;SDS011;23498;50.958;3.124;2023-09-18T01:26:56;8.02;;;4.65;;
37655;SDS011;23498;50.958;3.124;2023-09-18T01:29:22;7.53;;;4.45;;
37655;SDS011;23498;50.958;3.124;2023-09-18T01:31:48;6.75;;;4.60;;
37655;SDS011;23498;50.958;3.124;2023-09-18T01:34:36;6.10;;;4.28;;
37655;SDS011;23498;50.958;3.124;2023-09-18T01:37:01;6.72;;;4.63;;
37655;SDS011;23498;50.958;3.124;2023-09-18T01:39:29;6.10;;;4.38;;
37655;SDS011;23498;50.958;3.124;2023-09-18T01:41:59;8.77;;;4.60;;
37655;SDS011;23498;50.958;3.124;2023-09-18T01:44:26;6.13;;;4.50;;
37655;SDS011;23498;50.958;3.124;2023-09-18T01:46:52;7.40;;;4.20;;
37655;SDS011;23498;50.958;3.124;2023-09-18T01:49:32;7.63;;;4.03;;
37655;SDS011;23498;50.958;3.124;2023-09-18T01:51:58;5.75;;;3.75;;
37655;SDS011;23498;50.958;3.124;2023-09-18T01:54:24;6.20;;;4.13;;
37655;SDS011;23498;50.958;3.124;2023-09-18T01:56:50;6.88;;;4.22;;
37655;SDS011;23498;50.958;3.124;2023-09-18T01:59:17;5.70;;;4.00;;
37655;SDS011;23498;50.958;3.124;2023-09-18T02:01:43;6.90;;;4.43;;
37655;SDS011;23498;50.958;3.124;2023-09-18T02:04:09;6.05;;;4.30;;
37655;SDS011;23498;50.958;3.124;2023-09-18T02:06:35;6.93;;;3.95;;
37655;SDS011;23498;50.958;3.124;2023-09-18T02:09:02;6.85;;;3.85;;
37655;SDS011;23498;50.958;3.124;2023-09-18T02:11:38;6.50;;;3.90;;
37655;SDS011;23498;50.958;3.124;2023-09-18T02:14:04;7.20;;;4.03;;
37655;SDS011;23498;50.958;3.124;2023-09-18T02:16:32;6.45;;;3.63;;
37655;SDS011;23498;50.958;3.124;2023-09-18T02:18:58;6.28;;;3.95;;
37655;SDS011;23498;50.958;3.124;2023-09-18T02:21:24;6.03;;;3.50;;
37655;SDS011;23498;50.958;3.124;2023-09-18T02:23:51;7.50;;;3.63;;
37655;SDS011;23498;50.958;3.124;2023-09-18T02:26:17;6.38;;;3.35;;
37655;SDS011;23498;50.958;3.124;2023-09-18T02:28:43;6.75;;;3.17;;
37655;SDS011;23498;50.958;3.124;2023-09-18T02:31:09;7.82;;;3.20;;
37655;SDS011;23498;50.958;3.124;2023-09-18T02:33:36;6.80;;;3.03;;
37655;SDS011;23498;50.958;3.124;2023-09-18T02:36:02;4.72;;;3.17;;
37655;SDS011;23498;50.958;3.124;2023-09-18T02:38:28;6.10;;;2.85;;
37655;SDS011;23498;50.958;3.124;2023-09-18T02:40:57;5.25;;;3.22;;
37655;SDS011;23498;50.958;3.124;2023-09-18T02:43:23;6.65;;;2.75;;
37655;SDS011;23498;50.958;3.124;2023-09-18T02:45:49;4.53;;;2.90;;
37655;SDS011;23498;50.958;3.124;2023-09-18T02:48:15;5.50;;;3.10;;
37655;SDS011;23498;50.958;3.124;2023-09-18T02:50:42;5.78;;;2.60;;
37655;SDS011;23498;50.958;3.124;2023-09-18T02:53:12;6.88;;;3.10;;
37655;SDS011;23498;50.958;3.124;2023-09-18T02:55:41;5.18;;;2.50;;
37655;SDS011;23498;50.958;3.124;2023-09-18T02:58:08;5.15;;;2.20;;
37655;SDS011;23498;50.958;3.124;2023-09-18T03:00:35;4.80;;;2.35;;
37655;SDS011;23498;50.958;3.124;2023-09-18T03:03:07;6.55;;;2.75;;
37655;SDS011;23498;50.958;3.124;2023-09-18T03:05:33;4.50;;;2.53;;
37655;SDS011;23498;50.958;3.124;2023-09-18T03:07:59;4.22;;;2.30;;
37655;SDS011;23498;50.958;3.124;2023-09-18T03:10:25;5.68;;;2.72;;
37655;SDS011;23498;50.958;3.124;2023-09-18T03:12:51;4.63;;;2.45;;
37655;SDS011;23498;50.958;3.124;2023-09-18T03:15:17;5.18;;;2.60;;
37655;SDS011;23498;50.958;3.124;2023-09-18T03:17:43;3.83;;;2.35;;
37655;SDS011;23498;50.958;3.124;2023-09-18T03:20:09;4.93;;;2.30;;
37655;SDS011;23498;50.958;3.124;2023-09-18T03:22:35;4.40;;;2.60;;
37655;SDS011;23498;50.958;3.124;2023-09-18T03:25:01;6.70;;;2.40;;
37655;SDS011;23498;50.958;3.124;2023-09-18T03:27:27;5.75;;;2.58;;
37655;SDS011;23498;50.958;3.124;2023-09-18T03:29:54;5.93;;;2.40;;
37655;SDS011;23498;50.958;3.124;2023-09-18T03:32:20;4.60;;;2.05;;
37655;SDS011;23498;50.958;3.124;2023-09-18T03:34:46;4.43;;;2.30;;
37655;SDS011;23498;50.958;3.124;2023-09-18T03:37:16;5.57;;;2.17;;
37655;SDS011;23498;50.958;3.124;2023-09-18T03:39:42;5.60;;;2.22;;
37655;SDS011;23498;50.958;3.124;2023-09-18T03:42:08;4.30;;;2.25;;
37655;SDS011;23498;50.958;3.124;2023-09-18T03:44:34;3.95;;;2.47;;
37655;SDS011;23498;50.958;3.124;2023-09-18T03:47:00;4.75;;;2.20;;
37655;SDS011;23498;50.958;3.124;2023-09-18T03:49:27;6.03;;;2.22;;
37655;SDS011;23498;50.958;3.124;2023-09-18T03:51:53;3.40;;;2.05;;
37655;SDS011;23498;50.958;3.124;2023-09-18T03:54:19;4.60;;;2.05;;
37655;SDS011;23498;50.958;3.124;2023-09-18T03:56:45;4.32;;;2.13;;
37655;SDS011;23498;50.958;3.124;2023-09-18T03:59:11;5.32;;;2.63;;
37655;SDS011;23498;50.958;3.124;2023-09-18T04:01:37;4.47;;;2.40;;
37655;SDS011;23498;50.958;3.124;2023-09-18T04:04:03;4.97;;;2.78;;
37655;SDS011;23498;50.958;3.124;2023-09-18T04:06:36;3.70;;;1.88;;
37655;SDS011;23498;50.958;3.124;2023-09-18T04:09:02;5.57;;;2.50;;
37655;SDS011;23498;50.958;3.124;2023-09-18T04:11:28;5.47;;;2.08;;
37655;SDS011;23498;50.958;3.124;2023-09-18T04:13:57;7.13;;;2.60;;
37655;SDS011;23498;50.958;3.124;2023-09-18T04:16:23;3.75;;;2.20;;
37655;SDS011;23498;50.958;3.124;2023-09-18T04:18:49;5.20;;;2.50;;
37655;SDS011;23498;50.958;3.124;2023-09-18T04:21:15;3.83;;;2.13;;
37655;SDS011;23498;50.958;3.124;2023-09-18T04:23:41;5.82;;;2.33;;
37655;SDS011;23498;50.958;3.124;2023-09-18T04:26:07;4.35;;;2.00;;
37655;SDS011;23498;50.958;3.124;2023-09-18T04:28:33;4.35;;;2.17;;
37655;SDS011;23498;50.958;3.124;2023-09-18T04:30:59;5.93;;;2.22;;
37655;SDS011;23498;50.958;3.124;2023-09-18T04:33:25;4.80;;;2.20;;
37655;SDS011;23498;50.958;3.124;2023-09-18T04:35:53;5.05;;;2.22;;
37655;SDS011;23498;50.958;3.124;2023-09-18T04:38:19;6.32;;;2.15;;
37655;SDS011;23498;50.958;3.124;2023-09-18T04:40:45;4.25;;;2.45;;
37655;SDS011;23498;50.958;3.124;2023-09-18T04:43:11;5.38;;;2.38;;
37655;SDS011;23498;50.958;3.124;2023-09-18T04:45:37;4.82;;;2.47;;
37655;SDS011;23498;50.958;3.124;2023-09-18T04:48:03;5.13;;;2.10;;
37655;SDS011;23498;50.958;3.124;2023-09-18T04:50:30;4.22;;;2.47;;
37655;SDS011;23498;50.958;3.124;2023-09-18T04:52:57;3.97;;;2.28;;
37655;SDS011;23498;50.958;3.124;2023-09-18T04:55:23;6.15;;;2.65;;
37655;SDS011;23498;50.958;3.124;2023-09-18T04:57:49;6.75;;;2.40;;
37655;SDS011;23498;50.958;3.124;2023-09-18T05:00:15;7.53;;;2.67;;
37655;SDS011;23498;50.958;3.124;2023-09-18T05:02:42;4.80;;;2.40;;
37655;SDS011;23498;50.958;3.124;2023-09-18T05:05:08;7.50;;;2.75;;
37655;SDS011;23498;50.958;3.124;2023-09-18T05:07:35;4.75;;;2.10;;
37655;SDS011;23498;50.958;3.124;2023-09-18T05:10:01;3.60;;;2.10;;
37655;SDS011;23498;50.958;3.124;2023-09-18T05:12:29;5.07;;;2.38;;
37655;SDS011;23498;50.958;3.124;2023-09-18T05:14:55;3.80;;;2.10;;
37655;SDS011;23498;50.958;3.124;2023-09-18T05:17:27;4.63;;;1.90;;
37655;SDS011;23498;50.958;3.124;2023-09-18T05:20:06;4.28;;;2.03;;
37655;SDS011;23498;50.958;3.124;2023-09-18T05:22:32;4.40;;;2.40;;
37655;SDS011;23498;50.958;3.124;2023-09-18T05:24:58;5.82;;;2.15;;
37655;SDS011;23498;50.958;3.124;2023-09-18T05:27:24;4.57;;;1.85;;
37655;SDS011;23498;50.958;3.124;2023-09-18T05:29:50;3.83;;;1.98;;
37655;SDS011;23498;50.958;3.124;2023-09-18T05:32:16;5.55;;;1.90;;
37655;SDS011;23498;50.958;3.124;2023-09-18T05:34:42;4.15;;;2.05;;
37655;SDS011;23498;50.958;3.124;2023-09-18T05:37:08;5.70;;;2.22;;
37655;SDS011;23498;50.958;3.124;2023-09-18T05:39:35;4.68;;;2.38;;
37655;SDS011;23498;50.958;3.124;2023-09-18T05:42:01;3.42;;;1.77;;
37655;SDS011;23498;50.958;3.124;2023-09-18T05:44:27;4.25;;;2.10;;
37655;SDS011;23498;50.958;3.124;2023-09-18T05:46:53;4.60;;;2.03;;
37655;SDS011;23498;50.958;3.124;2023-09-18T05:49:19;6.18;;;2.40;;
37655;SDS011;23498;50.958;3.124;2023-09-18T05:51:45;4.90;;;2.22;;
37655;SDS011;23498;50.958;3.124;2023-09-18T05:54:13;8.73;;;3.30;;
37655;SDS011;23498;50.958;3.124;2023-09-18T05:56:40;10.27;;;3.50;;
37655;SDS011;23498;50.958;3.124;2023-09-18T05:59:07;7.78;;;3.60;;
37655;SDS011;23498;50.958;3.124;2023-09-18T06:01:33;5.30;;;3.65;;
37655;SDS011;23498;50.958;3.124;2023-09-18T06:03:58;6.00;;;3.35;;
37655;SDS011;23498;50.958;3.124;2023-09-18T06:06:25;6.35;;;3.28;;
37655;SDS011;23498;50.958;3.124;2023-09-18T06:08:51;6.78;;;3.47;;
37655;SDS011;23498;50.958;3.124;2023-09-18T06:11:18;6.20;;;3.20;;
37655;SDS011;23498;50.958;3.124;2023-09-18T06:13:44;7.15;;;3.53;;
37655;SDS011;23498;50.958;3.124;2023-09-18T06:16:10;6.97;;;3.53;;
37655;SDS011;23498;50.958;3.124;2023-09-18T06:18:36;5.30;;;3.15;;
37655;SDS011;23498;50.958;3.124;2023-09-18T06:21:03;4.28;;;2.90;;
37655;SDS011;23498;50.958;3.124;2023-09-18T06:23:30;8.43;;;2.83;;
37655;SDS011;23498;50.958;3.124;2023-09-18T06:25:56;5.47;;;3.22;;
37655;SDS011;23498;50.958;3.124;2023-09-18T06:28:24;5.70;;;2.90;;
37655;SDS011;23498;50.958;3.124;2023-09-18T06:30:53;6.50;;;3.45;;
37655;SDS011;23498;50.958;3.124;2023-09-18T06:33:19;6.18;;;2.97;;
37655;SDS011;23498;50.958;3.124;2023-09-18T06:35:45;6.68;;;3.88;;
37655;SDS011;23498;50.958;3.124;2023-09-18T06:38:13;5.68;;;3.30;;
37655;SDS011;23498;50.958;3.124;2023-09-18T06:40:40;7.22;;;3.45;;
37655;SDS011;23498;50.958;3.124;2023-09-18T06:43:06;8.48;;;3.97;;
37655;SDS011;23498;50.958;3.124;2023-09-18T06:45:32;6.35;;;3.42;;
37655;SDS011;23498;50.958;3.124;2023-09-18T06:47:59;6.88;;;3.50;;
37655;SDS011;23498;50.958;3.124;2023-09-18T06:50:28;8.80;;;3.03;;
37655;SDS011;23498;50.958;3.124;2023-09-18T06:52:54;6.15;;;3.25;;
37655;SDS011;23498;50.958;3.124;2023-09-18T06:55:20;6.88;;;2.85;;
37655;SDS011;23498;50.958;3.124;2023-09-18T06:57:46;5.40;;;2.92;;
37655;SDS011;23498;50.958;3.124;2023-09-18T07:00:14;6.32;;;2.80;;
37655;SDS011;23498;50.958;3.124;2023-09-18T07:02:40;8.32;;;2.95;;
37655;SDS011;23498;50.958;3.124;2023-09-18T07:05:06;6.50;;;2.95;;
37655;SDS011;23498;50.958;3.124;2023-09-18T07:07:32;5.75;;;3.00;;
37655;SDS011;23498;50.958;3.124;2023-09-18T07:09:58;4.93;;;3.00;;
37655;SDS011;23498;50.958;3.124;2023-09-18T07:12:24;5.75;;;3.40;;
37655;SDS011;23498;50.958;3.124;2023-09-18T07:14:50;5.03;;;3.00;;
37655;SDS011;23498;50.958;3.124;2023-09-18T07:17:16;6.00;;;3.28;;
37655;SDS011;23498;50.958;3.124;2023-09-18T07:19:42;6.88;;;3.30;;
37655;SDS011;23498;50.958;3.124;2023-09-18T07:22:08;7.28;;;2.92;;
37655;SDS011;23498;50.958;3.124;2023-09-18T07:24:34;7.05;;;2.90;;
37655;SDS011;23498;50.958;3.124;2023-09-18T07:27:00;6.70;;;3.65;;
37655;SDS011;23498;50.958;3.124;2023-09-18T07:29:28;7.10;;;3.70;;
37655;SDS011;23498;50.958;3.124;2023-09-18T07:31:54;6.22;;;3.50;;
37655;SDS011;23498;50.958;3.124;2023-09-18T07:34:20;7.28;;;3.80;;
37655;SDS011;23498;50.958;3.124;2023-09-18T07:36:46;7.40;;;3.58;;
37655;SDS011;23498;50.958;3.124;2023-09-18T07:39:12;6.95;;;4.07;;
37655;SDS011;23498;50.958;3.124;2023-09-18T07:41:39;6.22;;;3.40;;
37655;SDS011;23498;50.958;3.124;2023-09-18T07:44:05;6.68;;;4.13;;
37655;SDS011;23498;50.958;3.124;2023-09-18T07:46:31;7.70;;;3.40;;
37655;SDS011;23498;50.958;3.124;2023-09-18T07:48:57;7.97;;;3.72;;
37655;SDS011;23498;50.958;3.124;2023-09-18T07:51:23;7.30;;;3.90;;
37655;SDS011;23498;50.958;3.124;2023-09-18T07:53:49;9.02;;;4.70;;
37655;SDS011;23498;50.958;3.124;2023-09-18T07:56:15;6.28;;;3.63;;
37655;SDS011;23498;50.958;3.124;2023-09-18T07:58:42;6.40;;;3.75;;
37655;SDS011;23498;50.958;3.124;2023-09-18T08:01:08;5.20;;;3.83;;
37655;SDS011;23498;50.958;3.124;2023-09-18T08:03:35;6.85;;;4.03;;
37655;SDS011;23498;50.958;3.124;2023-09-18T08:06:01;5.80;;;3.88;;
37655;SDS011;23498;50.958;3.124;2023-09-18T08:08:29;6.65;;;3.72;;
37655;SDS011;23498;50.958;3.124;2023-09-18T08:10:57;9.13;;;4.03;;
37655;SDS011;23498;50.958;3.124;2023-09-18T08:13:23;8.32;;;3.88;;
37655;SDS011;23498;50.958;3.124;2023-09-18T08:15:49;6.82;;;3.50;;
37655;SDS011;23498;50.958;3.124;2023-09-18T08:18:16;9.00;;;4.05;;
37655;SDS011;23498;50.958;3.124;2023-09-18T08:20:42;6.85;;;3.67;;
37655;SDS011;23498;50.958;3.124;2023-09-18T08:23:11;7.43;;;3.30;;
37655;SDS011;23498;50.958;3.124;2023-09-18T08:25:38;7.05;;;3.63;;
37655;SDS011;23498;50.958;3.124;2023-09-18T08:28:05;6.07;;;3.60;;
37655;SDS011;23498;50.958;3.124;2023-09-18T08:30:31;5.30;;;3.47;;
37655;SDS011;23498;50.958;3.124;2023-09-18T08:32:57;6.35;;;3.88;;
37655;SDS011;23498;50.958;3.124;2023-09-18T08:35:23;7.20;;;3.63;;
37655;SDS011;23498;50.958;3.124;2023-09-18T08:37:54;7.32;;;3.50;;
37655;SDS011;23498;50.958;3.124;2023-09-18T08:40:20;6.32;;;3.30;;
37655;SDS011;23498;50.958;3.124;2023-09-18T08:42:47;6.45;;;2.95;;
37655;SDS011;23498;50.958;3.124;2023-09-18T08:45:31;6.32;;;3.20;;
37655;SDS011;23498;50.958;3.124;2023-09-18T08:47:59;5.63;;;3.15;;
37655;SDS011;23498;50.958;3.124;2023-09-18T08:50:26;7.68;;;3.00;;
37655;SDS011;23498;50.958;3.124;2023-09-18T08:52:52;6.53;;;3.15;;
37655;SDS011;23498;50.958;3.124;2023-09-18T08:55:18;9.13;;;3.45;;
37655;SDS011;23498;50.958;3.124;2023-09-18T08:57:45;6.63;;;3.03;;
37655;SDS011;23498;50.958;3.124;2023-09-18T09:00:12;5.68;;;3.13;;
37655;SDS011;23498;50.958;3.124;2023-09-18T09:02:41;8.55;;;2.75;;
37655;SDS011;23498;50.958;3.124;2023-09-18T09:05:07;7.72;;;3.35;;
37655;SDS011;23498;50.958;3.124;2023-09-18T09:07:34;5.78;;;3.00;;
37655;SDS011;23498;50.958;3.124;2023-09-18T09:09:59;5.15;;;2.90;;
37655;SDS011;23498;50.958;3.124;2023-09-18T09:15:10;6.05;;;3.00;;
37655;SDS011;23498;50.958;3.124;2023-09-18T09:17:36;5.57;;;3.10;;
37655;SDS011;23498;50.958;3.124;2023-09-18T09:20:09;5.35;;;3.03;;
37655;SDS011;23498;50.958;3.124;2023-09-18T09:22:38;5.53;;;3.45;;
37655;SDS011;23498;50.958;3.124;2023-09-18T09:25:21;7.07;;;3.47;;
37655;SDS011;23498;50.958;3.124;2023-09-18T09:27:47;6.93;;;3.78;;
37655;SDS011;23498;50.958;3.124;2023-09-18T09:30:20;7.68;;;3.95;;
37655;SDS011;23498;50.958;3.124;2023-09-18T09:32:50;8.18;;;3.33;;
37655;SDS011;23498;50.958;3.124;2023-09-18T09:35:20;6.28;;;3.63;;
37655;SDS011;23498;50.958;3.124;2023-09-18T09:37:46;6.25;;;3.47;;
37655;SDS011;23498;50.958;3.124;2023-09-18T09:40:13;9.98;;;3.88;;
37655;SDS011;23498;50.958;3.124;2023-09-18T09:42:39;7.55;;;3.65;;
37655;SDS011;23498;50.958;3.124;2023-09-18T09:45:10;8.55;;;3.42;;
37655;SDS011;23498;50.958;3.124;2023-09-18T09:47:37;6.93;;;3.47;;
37655;SDS011;23498;50.958;3.124;2023-09-18T09:50:06;6.93;;;3.97;;
37655;SDS011;23498;50.958;3.124;2023-09-18T09:52:34;5.45;;;3.53;;
37655;SDS011;23498;50.958;3.124;2023-09-18T09:55:01;8.15;;;3.72;;
37655;SDS011;23498;50.958;3.124;2023-09-18T09:57:30;5.25;;;3.30;;
37655;SDS011;23498;50.958;3.124;2023-09-18T10:00:03;5.00;;;3.30;;
37655;SDS011;23498;50.958;3.124;2023-09-18T10:02:53;7.78;;;2.97;;
37655;SDS011;23498;50.958;3.124;2023-09-18T10:05:19;6.65;;;3.13;;
37655;SDS011;23498;50.958;3.124;2023-09-18T10:07:45;5.15;;;3.20;;
37655;SDS011;23498;50.958;3.124;2023-09-18T10:10:11;7.05;;;2.58;;
37655;SDS011;23498;50.958;3.124;2023-09-18T10:12:37;5.25;;;2.60;;
37655;SDS011;23498;50.958;3.124;2023-09-18T10:15:05;5.57;;;2.72;;
37655;SDS011;23498;50.958;3.124;2023-09-18T10:17:34;5.72;;;2.72;;
37655;SDS011;23498;50.958;3.124;2023-09-18T10:20:07;5.88;;;2.90;;
37655;SDS011;23498;50.958;3.124;2023-09-18T10:22:42;4.47;;;2.75;;
37655;SDS011;23498;50.958;3.124;2023-09-18T10:25:15;7.07;;;3.22;;
37655;SDS011;23498;50.958;3.124;2023-09-18T10:27:52;7.05;;;3.22;;
37655;SDS011;23498;50.958;3.124;2023-09-18T10:30:18;7.65;;;2.60;;
37655;SDS011;23498;50.958;3.124;2023-09-18T10:32:45;7.43;;;2.90;;
37655;SDS011;23498;50.958;3.124;2023-09-18T10:35:13;6.30;;;2.72;;
37655;SDS011;23498;50.958;3.124;2023-09-18T10:37:39;4.60;;;2.42;;
37655;SDS011;23498;50.958;3.124;2023-09-18T10:40:08;5.60;;;2.75;;
37655;SDS011;23498;50.958;3.124;2023-09-18T10:42:35;5.10;;;2.30;;
37655;SDS011;23498;50.958;3.124;2023-09-18T10:45:02;6.00;;;3.30;;
37655;SDS011;23498;50.958;3.124;2023-09-18T10:47:32;5.40;;;2.60;;
37655;SDS011;23498;50.958;3.124;2023-09-18T10:49:59;5.32;;;2.65;;
37655;SDS011;23498;50.958;3.124;2023-09-18T10:52:26;5.25;;;2.42;;
37655;SDS011;23498;50.958;3.124;2023-09-18T10:54:52;6.93;;;2.60;;
37655;SDS011;23498;50.958;3.124;2023-09-18T10:57:21;3.00;;;1.98;;
37655;SDS011;23498;50.958;3.124;2023-09-18T10:59:47;5.25;;;2.25;;
37655;SDS011;23498;50.958;3.124;2023-09-18T11:02:13;4.78;;;2.00;;
37655;SDS011;23498;50.958;3.124;2023-09-18T11:04:41;4.60;;;2.13;;
37655;SDS011;23498;50.958;3.124;2023-09-18T11:07:08;4.28;;;2.10;;
37655;SDS011;23498;50.958;3.124;2023-09-18T11:09:44;2.85;;;1.63;;
37655;SDS011;23498;50.958;3.124;2023-09-18T11:12:10;3.95;;;1.80;;
37655;SDS011;23498;50.958;3.124;2023-09-18T11:20:08;3.63;;;1.83;;
37655;SDS011;23498;50.958;3.124;2023-09-18T11:22:36;3.33;;;1.73;;
37655;SDS011;23498;50.958;3.124;2023-09-18T11:27:54;3.13;;;2.00;;
37655;SDS011;23498;50.958;3.124;2023-09-18T11:30:21;5.28;;;2.00;;
37655;SDS011;23498;50.958;3.124;2023-09-18T11:32:48;4.95;;;1.88;;
37655;SDS011;23498;50.958;3.124;2023-09-18T11:35:14;3.42;;;1.75;;
37655;SDS011;23498;50.958;3.124;2023-09-18T11:37:43;3.10;;;1.80;;
37655;SDS011;23498;50.958;3.124;2023-09-18T11:40:28;4.30;;;1.55;;
37655;SDS011;23498;50.958;3.124;2023-09-18T11:45:43;6.18;;;1.70;;
37655;SDS011;23498;50.958;3.124;2023-09-18T11:48:13;4.20;;;1.67;;
37655;SDS011;23498;50.958;3.124;2023-09-18T11:50:41;6.75;;;1.85;;
37655;SDS011;23498;50.958;3.124;2023-09-18T11:53:07;5.22;;;1.90;;
37655;SDS011;23498;50.958;3.124;2023-09-18T11:55:33;5.97;;;1.90;;
37655;SDS011;23498;50.958;3.124;2023-09-18T11:58:00;3.33;;;1.77;;
37655;SDS011;23498;50.958;3.124;2023-09-18T12:00:29;4.05;;;1.83;;
37655;SDS011;23498;50.958;3.124;2023-09-18T12:02:56;4.18;;;2.13;;
37655;SDS011;23498;50.958;3.124;2023-09-18T12:05:23;5.22;;;1.70;;
37655;SDS011;23498;50.958;3.124;2023-09-18T12:07:52;5.68;;;1.67;;
37655;SDS011;23498;50.958;3.124;2023-09-18T12:10:19;4.25;;;2.25;;
37655;SDS011;23498;50.958;3.124;2023-09-18T12:12:48;6.63;;;2.00;;
37655;SDS011;23498;50.958;3.124;2023-09-18T12:15:16;4.75;;;2.28;;
37655;SDS011;23498;50.958;3.124;2023-09-18T12:17:42;3.15;;;1.98;;
37655;SDS011;23498;50.958;3.124;2023-09-18T12:20:17;4.82;;;2.25;;
37655;SDS011;23498;50.958;3.124;2023-09-18T12:22:46;4.30;;;1.77;;
37655;SDS011;23498;50.958;3.124;2023-09-18T12:25:12;6.53;;;1.88;;
37655;SDS011;23498;50.958;3.124;2023-09-18T12:27:39;4.50;;;2.10;;
37655;SDS011;23498;50.958;3.124;2023-09-18T12:30:05;4.75;;;2.03;;
37655;SDS011;23498;50.958;3.124;2023-09-18T12:32:32;4.93;;;2.10;;
37655;SDS011;23498;50.958;3.124;2023-09-18T12:34:58;8.10;;;2.58;;
37655;SDS011;23498;50.958;3.124;2023-09-18T12:37:24;5.80;;;2.55;;
37655;SDS011;23498;50.958;3.124;2023-09-18T12:39:50;7.35;;;2.45;;
37655;SDS011;23498;50.958;3.124;2023-09-18T12:42:19;4.38;;;1.30;;
37655;SDS011;23498;50.958;3.124;2023-09-18T12:44:46;4.72;;;1.45;;
37655;SDS011;23498;50.958;3.124;2023-09-18T12:47:13;5.28;;;2.10;;
37655;SDS011;23498;50.958;3.124;2023-09-18T12:49:39;4.70;;;2.53;;
37655;SDS011;23498;50.958;3.124;2023-09-18T12:52:05;5.90;;;3.00;;
37655;SDS011;23498;50.958;3.124;2023-09-18T12:54:44;6.78;;;3.45;;
37655;SDS011;23498;50.958;3.124;2023-09-18T12:57:19;7.45;;;3.75;;
37655;SDS011;23498;50.958;3.124;2023-09-18T12:59:45;6.00;;;4.20;;
37655;SDS011;23498;50.958;3.124;2023-09-18T13:02:14;6.88;;;4.47;;
37655;SDS011;23498;50.958;3.124;2023-09-18T13:04:40;6.85;;;4.50;;
37655;SDS011;23498;50.958;3.124;2023-09-18T13:07:07;7.88;;;4.20;;
37655;SDS011;23498;50.958;3.124;2023-09-18T13:09:33;6.50;;;4.53;;
37655;SDS011;23498;50.958;3.124;2023-09-18T13:12:00;7.28;;;4.35;;
37655;SDS011;23498;50.958;3.124;2023-09-18T13:14:27;7.10;;;4.22;;
37655;SDS011;23498;50.958;3.124;2023-09-18T13:16:53;6.70;;;4.38;;
37655;SDS011;23498;50.958;3.124;2023-09-18T13:19:19;7.60;;;4.22;;
37655;SDS011;23498;50.958;3.124;2023-09-18T13:21:46;7.00;;;4.45;;
37655;SDS011;23498;50.958;3.124;2023-09-18T13:24:28;7.13;;;4.50;;
37655;SDS011;23498;50.958;3.124;2023-09-18T13:26:54;7.43;;;4.72;;
37655;SDS011;23498;50.958;3.124;2023-09-18T13:29:21;9.18;;;4.63;;
37655;SDS011;23498;50.958;3.124;2023-09-18T13:31:47;7.20;;;5.13;;
37655;SDS011;23498;50.958;3.124;2023-09-18T13:34:13;4.65;;;3.13;;
37655;SDS011;23498;50.958;3.124;2023-09-18T13:36:42;4.95;;;3.25;;
37655;SDS011;23498;50.958;3.124;2023-09-18T13:39:08;4.47;;;2.70;;
37655;SDS011;23498;50.958;3.124;2023-09-18T13:41:35;5.75;;;2.47;;
37655;SDS011;23498;50.958;3.124;2023-09-18T13:44:01;6.88;;;2.60;;
37655;SDS011;23498;50.958;3.124;2023-09-18T13:46:27;7.05;;;2.28;;
37655;SDS011;23498;50.958;3.124;2023-09-18T13:48:53;4.45;;;2.60;;
37655;SDS011;23498;50.958;3.124;2023-09-18T13:51:19;3.83;;;2.30;;
37655;SDS011;23498;50.958;3.124;2023-09-18T13:53:45;4.18;;;2.20;;
37655;SDS011;23498;50.958;3.124;2023-09-18T13:56:13;4.65;;;2.15;;
37655;SDS011;23498;50.958;3.124;2023-09-18T13:58:39;5.70;;;2.38;;
37655;SDS011;23498;50.958;3.124;2023-09-18T14:01:06;3.63;;;2.08;;
37655;SDS011;23498;50.958;3.124;2023-09-18T14:03:33;5.40;;;2.15;;
37655;SDS011;23498;50.958;3.124;2023-09-18T14:05:59;5.35;;;2.03;;
37655;SDS011;23498;50.958;3.124;2023-09-18T14:08:25;6.32;;;2.25;;
37655;SDS011;23498;50.958;3.124;2023-09-18T14:10:51;6.00;;;2.03;;
37655;SDS011;23498;50.958;3.124;2023-09-18T14:13:17;3.75;;;1.98;;
37655;SDS011;23498;50.958;3.124;2023-09-18T14:15:43;5.93;;;2.00;;
37655;SDS011;23498;50.958;3.124;2023-09-18T14:18:09;5.15;;;1.85;;
37655;SDS011;23498;50.958;3.124;2023-09-18T14:20:36;5.28;;;1.80;;
37655;SDS011;23498;50.958;3.124;2023-09-18T14:23:02;6.15;;;1.80;;
37655;SDS011;23498;50.958;3.124;2023-09-18T14:25:28;5.03;;;1.50;;
37655;SDS011;23498;50.958;3.124;2023-09-18T14:27:55;7.28;;;1.50;;
37655;SDS011;23498;50.958;3.124;2023-09-18T14:30:21;5.53;;;1.50;;
37655;SDS011;23498;50.958;3.124;2023-09-18T14:32:51;4.47;;;1.58;;
37655;SDS011;23498;50.958;3.124;2023-09-18T14:35:17;4.32;;;1.25;;
37655;SDS011;23498;50.958;3.124;2023-09-18T14:37:43;3.58;;;1.55;;
37655;SDS011;23498;50.958;3.124;2023-09-18T14:40:09;5.03;;;1.70;;
37655;SDS011;23498;50.958;3.124;2023-09-18T14:42:36;5.55;;;1.80;;
37655;SDS011;23498;50.958;3.124;2023-09-18T14:45:03;4.97;;;1.52;;
37655;SDS011;23498;50.958;3.124;2023-09-18T14:47:29;5.93;;;1.50;;
37655;SDS011;23498;50.958;3.124;2023-09-18T14:49:55;6.07;;;1.58;;
37655;SDS011;23498;50.958;3.124;2023-09-18T14:52:23;11.43;;;1.33;;
37655;SDS011;23498;50.958;3.124;2023-09-18T14:54:51;7.18;;;1.70;;
37655;SDS011;23498;50.958;3.124;2023-09-18T14:57:17;4.40;;;1.50;;
37655;SDS011;23498;50.958;3.124;2023-09-18T14:59:43;6.57;;;1.50;;
37655;SDS011;23498;50.958;3.124;2023-09-18T15:02:12;6.57;;;1.60;;